Time;durP1;ratioP1;P1;durP2;ratioP2;P2;SDS_P1;SDS_P2;PMS_P1;PMS_P2;Temp;Humidity;BMP_temperature;BMP_pressure;BME280_temperature;BME280_humidity;BME280_pressure;Samples;Min_cycle;Max_cycle;Signal;HPM_P1;HPM_P2
2023/09/07 00:01:13;;;;;;;;;14.50;13.50;;;;;13.72;86.18;100304.34;6283432;20;2794155;-58
2023/09/07 00:03:42;;;;;;;;;13.67;11.67;;;;;13.72;86.05;100304.34;6278366;20;3512862;-58
2023/09/07 00:06:11;;;;;;;;;12.00;12.00;;;;;13.82;85.98;100309.97;6308383;20;3513824;-57
2023/09/07 00:08:40;;;;;;;;;11.67;11.67;;;;;13.66;86.10;100311.94;6305090;20;3513915;-57
2023/09/07 00:11:09;;;;;;;;;12.33;12.33;;;;;13.57;86.58;100306.19;6311126;20;3536711;-58
2023/09/07 00:13:38;;;;;;;;;13.00;11.50;;;;;13.48;87.05;100301.38;6311707;20;2787797;-58
2023/09/07 00:16:07;;;;;;;;;11.67;11.67;;;;;13.38;87.04;100292.16;6279262;20;3521094;-57
2023/09/07 00:18:37;;;;;;;;;12.67;11.00;;;;;13.59;86.95;100303.41;6310196;20;3507669;-58
2023/09/07 00:21:06;;;;;;;;;13.00;11.67;;;;;13.54;87.18;100300.13;6312574;20;3541955;-58
2023/09/07 00:23:34;;;;;;;;;12.00;10.00;;;;;13.42;86.56;100306.28;6285760;20;2791977;-57
2023/09/07 00:26:02;;;;;;;;;12.67;11.00;;;;;13.65;86.41;100304.84;6279341;20;3534826;-58
2023/09/07 00:28:31;;;;;;;;;14.33;13.00;;;;;13.64;86.74;100300.38;6308713;20;3525344;-57
2023/09/07 00:31:00;;;;;;;;;13.00;13.00;;;;;13.67;86.28;100297.50;6311527;20;2791043;-57
2023/09/07 00:33:28;;;;;;;;;13.00;13.00;;;;;13.84;86.54;100302.66;6278263;20;3527383;-57
2023/09/07 00:35:56;;;;;;;;;12.00;12.00;;;;;13.76;86.48;100300.47;6311966;20;2796352;-56
2023/09/07 00:38:25;;;;;;;;;16.00;13.00;;;;;13.89;86.31;100299.66;6276442;20;3533738;-57
2023/09/07 00:40:53;;;;;;;;;19.00;15.00;;;;;13.52;86.73;100302.06;6313847;20;2817094;-57
2023/09/07 00:43:21;;;;;;;;;12.33;12.33;;;;;13.76;86.18;100305.00;6279061;20;3518996;-57
2023/09/07 00:45:51;;;;;;;;;13.33;13.33;;;;;13.47;86.24;100299.63;6307965;20;3531643;-56
2023/09/07 00:48:20;;;;;;;;;12.33;12.33;;;;;13.07;87.26;100293.16;6303534;20;3521189;-58
2023/09/07 00:50:49;;;;;;;;;12.33;12.33;;;;;13.65;86.30;100294.91;6300425;20;3511782;-57
2023/09/07 00:53:17;;;;;;;;;11.00;11.00;;;;;13.42;86.30;100298.19;6310802;20;2789927;-56
2023/09/07 00:55:46;;;;;;;;;13.00;12.00;;;;;13.52;86.10;100296.66;6286396;20;1952524;-57
2023/09/07 00:58:15;;;;;;;;;14.00;14.00;;;;;13.57;85.71;100294.53;6273894;20;3522126;-58
2023/09/07 01:00:43;;;;;;;;;12.33;12.33;;;;;13.32;85.57;100295.22;6307550;20;3527370;-57
2023/09/07 01:03:12;;;;;;;;;14.67;12.33;;;;;13.28;86.06;100294.53;6306732;20;3527388;-58
2023/09/07 01:06:17;;;;;;;;;15.00;13.50;;;;;13.27;85.96;100287.44;6316309;20;2800386;-57
2023/09/07 01:08:51;;;;;;;;;14.50;11.50;;;;;12.40;87.75;100287.34;6286508;20;2784719;-57
2023/09/07 01:11:22;;;;;;;;;13.00;13.00;;;;;13.22;86.31;100294.91;6284183;20;2801387;-57
2023/09/07 01:13:53;;;;;;;;;12.00;12.00;;;;;13.06;86.05;100286.03;6283443;20;3533606;-57
2023/09/07 01:16:23;;;;;;;;;11.00;11.00;;;;;12.91;86.07;100294.13;6320782;20;2791963;-57
2023/09/07 01:18:54;;;;;;;;;16.00;14.67;;;;;13.25;85.79;100291.16;6281958;20;3544135;-57
2023/09/07 01:21:23;;;;;;;;;15.00;13.00;;;;;12.85;86.87;100290.91;6318743;20;2811063;-57
2023/09/07 01:23:52;;;;;;;;;16.00;12.00;;;;;13.18;86.18;100287.97;6284072;20;2802383;-57
2023/09/07 01:26:20;;;;;;;;;14.50;14.50;;;;;12.90;87.08;100278.91;6285662;20;2808573;-57
2023/09/07 01:28:48;;;;;;;;;16.00;14.50;;;;;13.05;86.93;100287.00;6285664;20;2794023;-58
2023/09/07 01:31:17;;;;;;;;;13.67;13.00;;;;;13.14;87.21;100286.44;6278307;20;3499218;-58
2023/09/07 01:33:45;;;;;;;;;13.50;12.50;;;;;13.11;87.04;100286.59;6309576;20;2801341;-57
2023/09/07 01:36:13;;;;;;;;;14.50;14.50;;;;;12.94;87.11;100280.44;6285344;20;2803448;-57
2023/09/07 01:38:42;;;;;;;;;17.67;15.00;;;;;12.92;87.85;100292.28;6285232;20;3546169;-56
2023/09/07 01:41:10;;;;;;;;;15.00;14.00;;;;;12.58;88.28;100290.78;6281189;20;3512743;-57
2023/09/07 01:43:39;;;;;;;;;15.00;12.33;;;;;12.96;88.33;100289.31;6313849;20;3532568;-57
2023/09/07 01:46:07;;;;;;;;;13.50;12.00;;;;;12.84;87.94;100295.44;6318451;20;2796102;-57
2023/09/07 01:48:36;;;;;;;;;14.00;14.00;;;;;12.24;88.87;100292.78;6284495;20;2794061;-57
2023/09/07 01:51:04;;;;;;;;;15.00;13.00;;;;;12.68;89.16;100300.03;6281513;20;3527391;-57
2023/09/07 01:53:33;;;;;;;;;14.33;13.33;;;;;12.89;87.57;100298.72;6312330;20;3526424;-57
2023/09/07 01:56:02;;;;;;;;;12.33;12.33;;;;;12.88;88.43;100297.00;6314499;20;3521078;-57
2023/09/07 01:58:31;;;;;;;;;18.67;15.00;;;;;12.92;88.28;100297.66;6281300;20;3544055;-58
2023/09/07 02:01:00;;;;;;;;;12.00;12.00;;;;;12.95;87.92;100300.16;6283394;20;2813833;-57
2023/09/07 02:03:28;;;;;;;;;13.00;12.33;;;;;12.96;88.11;100294.69;6280882;20;3527509;-57
2023/09/07 02:05:57;;;;;;;;;11.33;11.33;;;;;12.96;88.24;100294.69;6311550;20;3519015;-57
2023/09/07 02:08:26;;;;;;;;;15.67;13.00;;;;;12.76;88.46;100297.75;6311522;20;3536895;-57
2023/09/07 02:10:56;;;;;;;;;14.00;10.67;;;;;12.50;89.24;100289.41;6316970;20;3518036;-55
2023/09/07 02:13:25;;;;;;;;;15.00;13.00;;;;;12.58;89.19;100294.31;6313988;20;3515997;-57
2023/09/07 02:15:53;;;;;;;;;13.67;13.67;;;;;12.47;88.84;100291.41;6311780;20;3534661;-58
2023/09/07 02:18:22;;;;;;;;;15.00;13.67;;;;;12.48;88.78;100291.34;6280755;20;3535825;-56
2023/09/07 02:20:51;;;;;;;;;13.00;13.00;;;;;12.34;88.83;100290.41;6277249;20;3525335;-58
2023/09/07 02:23:19;;;;;;;;;15.50;13.00;;;;;12.56;88.29;100290.00;6314069;20;2794063;-57
2023/09/07 02:25:47;;;;;;;;;14.67;14.67;;;;;12.85;87.64;100294.50;6281938;20;3535684;-58
2023/09/07 02:28:16;;;;;;;;;14.67;12.67;;;;;12.73;88.28;100295.25;6308267;20;3520287;-57
2023/09/07 02:30:45;;;;;;;;;17.00;14.50;;;;;12.91;87.78;100291.41;6310052;20;3431497;-57
2023/09/07 02:33:14;;;;;;;;;14.33;12.33;;;;;12.58;87.89;100298.84;6312078;20;3528503;-57
2023/09/07 02:35:42;;;;;;;;;16.67;14.67;;;;;12.57;88.05;100289.91;6278174;20;3545049;-58
2023/09/07 02:38:13;;;;;;;;;15.67;12.00;;;;;12.28;87.94;100288.97;6279238;20;3509678;-57
2023/09/07 02:40:43;;;;;;;;;14.00;13.67;;;;;12.71;86.90;100294.47;6311604;20;3516945;-57
2023/09/07 02:43:11;;;;;;;;;11.50;11.50;;;;;12.33;87.92;100305.72;6319359;20;2795098;-58
2023/09/07 02:45:39;;;;;;;;;16.00;14.00;;;;;12.04;88.01;100294.81;6281349;20;2689875;-57
2023/09/07 02:48:07;;;;;;;;;15.50;14.00;;;;;11.91;89.11;100291.09;6285691;20;2806940;-58
2023/09/07 02:50:38;;;;;;;;;14.67;13.33;;;;;12.12;88.18;100297.06;6281707;20;3523237;-57
2023/09/07 02:53:06;;;;;;;;;15.67;14.67;;;;;11.86;88.44;100293.19;6313377;20;2815936;-57
2023/09/07 02:55:37;;;;;;;;;11.50;11.50;;;;;11.61;89.08;100293.66;6317910;20;2788847;-58
2023/09/07 02:58:06;;;;;;;;;11.67;11.33;;;;;12.06;88.10;100294.75;6281398;20;3522166;-56
2023/09/07 03:00:34;;;;;;;;;13.33;12.67;;;;;12.08;88.00;100291.00;6313661;20;3519047;-57
2023/09/07 03:03:03;;;;;;;;;12.50;10.00;;;;;12.21;88.26;100290.25;6311917;20;2794027;-57
2023/09/07 03:05:31;;;;;;;;;15.00;13.50;;;;;11.91;88.43;100293.78;6279462;20;2814860;-56
2023/09/07 03:07:59;;;;;;;;;13.00;13.00;;;;;12.23;87.96;100299.13;6280485;20;3525331;-56
2023/09/07 03:10:28;;;;;;;;;15.00;15.00;;;;;11.86;88.07;100301.25;6308932;20;3533685;-58
2023/09/07 03:12:57;;;;;;;;;14.33;13.67;;;;;11.51;89.29;100296.00;6307859;20;3517067;-57
2023/09/07 03:15:26;;;;;;;;;14.33;14.33;;;;;11.75;88.64;100301.84;6312569;20;3535797;-57
2023/09/07 03:17:55;;;;;;;;;14.00;14.00;;;;;11.47;89.63;100305.19;6311532;20;3515929;-57
2023/09/07 03:20:24;;;;;;;;;12.33;12.33;;;;;11.40;90.03;100309.16;6310318;20;3522382;-57
2023/09/07 03:22:52;;;;;;;;;14.00;14.00;;;;;11.51;90.49;100306.78;6280766;20;3525262;-55
2023/09/07 03:25:21;;;;;;;;;17.00;15.33;;;;;11.55;89.55;100313.69;6311071;20;3562954;-56
2023/09/07 03:27:50;;;;;;;;;16.00;16.00;;;;;11.25;90.50;100304.66;6273844;20;3558610;-58
2023/09/07 03:30:18;;;;;;;;;16.00;16.00;;;;;11.45;89.46;100301.72;6279834;20;2500344;-57
2023/09/07 03:32:47;;;;;;;;;22.50;21.50;;;;;11.44;89.76;100316.13;6278923;20;2845165;-58
2023/09/07 03:35:16;;;;;;;;;24.00;23.00;;;;;11.38;90.40;100306.56;6279106;20;2843812;-57
2023/09/07 03:37:45;;;;;;;;;26.00;24.00;;;;;11.25;89.92;100301.97;6281118;20;2856586;-58
2023/09/07 03:40:14;;;;;;;;;25.67;23.67;;;;;11.34;90.19;100310.38;6313664;20;3580544;-57
2023/09/07 03:42:45;;;;;;;;;19.50;19.50;;;;;11.61;90.02;100302.63;6278584;20;2840003;-54
2023/09/07 03:45:14;;;;;;;;;22.50;20.50;;;;;11.69;89.57;100312.06;6276398;20;2836773;-57
2023/09/07 03:47:44;;;;;;;;;19.00;17.00;;;;;11.69;89.85;100309.38;6280901;20;2837798;-57
2023/09/07 03:50:12;;;;;;;;;18.50;18.50;;;;;11.77;89.17;100310.69;6279932;20;2835858;-57
2023/09/07 03:52:41;;;;;;;;;16.50;16.50;;;;;11.76;88.91;100305.38;6279363;20;2834649;-56
2023/09/07 03:55:10;;;;;;;;;22.00;19.00;;;;;11.86;88.91;100306.63;6282005;20;2689278;-56
2023/09/07 03:57:39;;;;;;;;;18.00;14.67;;;;;11.80;88.88;100302.44;6313197;20;3542980;-55
2023/09/07 04:00:09;;;;;;;;;15.50;15.50;;;;;11.93;89.07;100308.03;6278585;20;2810877;-57
2023/09/07 04:02:37;;;;;;;;;18.67;15.67;;;;;11.90;88.85;100308.22;6280927;20;3558635;-56
2023/09/07 04:05:06;;;;;;;;;13.00;12.00;;;;;11.82;89.35;100305.03;6280915;20;2794102;-57
2023/09/07 04:07:34;;;;;;;;;15.50;15.00;;;;;11.74;89.04;100307.28;6282347;20;2815008;-57
2023/09/07 04:10:05;;;;;;;;;18.00;17.50;;;;;11.54;88.92;100313.81;6279903;20;2844134;-57
2023/09/07 04:12:33;;;;;;;;;16.00;15.67;;;;;11.64;89.50;100321.28;6278886;20;3548219;-57
2023/09/07 04:15:05;;;;;;;;;13.50;13.00;;;;;11.49;89.14;100322.13;6278755;20;2792109;-55
2023/09/07 04:17:39;;;;;;;;;17.00;15.00;;;;;11.12;89.95;100318.75;6279840;20;2491976;-57
2023/09/07 04:20:11;;;;;;;;;13.33;12.00;;;;;11.46;89.75;100329.50;6280163;20;2793089;-57
2023/09/07 04:22:41;;;;;;;;;15.00;14.00;;;;;11.42;89.79;100323.41;6311559;20;3530575;-56
2023/09/07 04:25:09;;;;;;;;;18.00;14.00;;;;;11.20;91.02;100329.09;6278552;20;2807630;-55
2023/09/07 04:27:38;;;;;;;;;15.33;14.00;;;;;11.65;90.49;100333.75;6306757;20;3530482;-57
2023/09/07 04:30:08;;;;;;;;;16.00;14.33;;;;;11.80;89.95;100331.19;6279544;20;3544034;-55
2023/09/07 04:32:37;;;;;;;;;17.33;15.00;;;;;11.77;89.59;100336.69;6310799;20;3558620;-57
2023/09/07 04:35:07;;;;;;;;;14.67;13.33;;;;;11.79;89.72;100330.28;6275308;20;3529471;-57
2023/09/07 04:37:35;;;;;;;;;14.33;14.33;;;;;11.97;89.60;100336.47;6310894;20;3532561;-57
2023/09/07 04:40:07;;;;;;;;;13.33;13.33;;;;;12.13;89.28;100335.59;6279378;20;3515901;-56
2023/09/07 04:42:38;;;;;;;;;13.67;13.67;;;;;12.20;89.40;100337.00;6307430;20;3526446;-51
2023/09/07 04:45:08;;;;;;;;;14.00;14.00;;;;;12.27;89.18;100344.63;6306203;20;3535720;-56
2023/09/07 04:47:36;;;;;;;;;15.00;15.00;;;;;12.10;89.75;100346.56;6309835;20;3535716;-55
2023/09/07 04:50:06;;;;;;;;;15.00;14.00;;;;;12.34;89.04;100344.28;6307930;20;2810762;-54
2023/09/07 04:52:34;;;;;;;;;16.00;14.00;;;;;12.44;88.84;100350.84;6282478;20;2796268;-54
2023/09/07 04:55:04;;;;;;;;;14.67;13.33;;;;;12.25;89.79;100340.28;6277809;20;3521281;-55
2023/09/07 04:57:32;;;;;;;;;16.00;15.67;;;;;12.47;89.51;100346.16;6305908;20;3556890;-55
2023/09/07 05:00:00;;;;;;;;;19.50;15.50;;;;;12.38;89.49;100345.84;6275269;20;2500312;-55
2023/09/07 05:02:28;;;;;;;;;16.50;15.00;;;;;12.85;88.13;100348.41;6278076;20;2496111;-56
2023/09/07 05:04:56;;;;;;;;;15.00;14.00;;;;;12.70;88.57;100344.78;6278455;20;2796248;-56
2023/09/07 05:07:25;;;;;;;;;18.00;16.00;;;;;12.98;87.25;100350.31;6277883;20;3551311;-56
2023/09/07 05:09:53;;;;;;;;;15.33;14.00;;;;;13.03;86.64;100350.91;6278537;20;3536821;-56
2023/09/07 05:12:21;;;;;;;;;14.00;14.00;;;;;12.88;87.64;100359.00;6309323;20;2492092;-55
2023/09/07 05:14:50;;;;;;;;;15.00;14.00;;;;;13.28;86.98;100359.28;6272773;20;3519084;-54
2023/09/07 05:17:18;;;;;;;;;15.00;15.00;;;;;13.50;86.61;100358.78;6311146;20;2810960;-55
2023/09/07 05:19:47;;;;;;;;;19.67;15.67;;;;;13.72;85.72;100357.44;6280436;20;3566948;-56
2023/09/07 05:22:15;;;;;;;;;14.67;14.67;;;;;14.13;84.07;100356.59;6279617;20;3525505;-56
2023/09/07 05:24:46;;;;;;;;;16.33;13.00;;;;;14.12;84.48;100358.44;6279800;20;3520162;-55
2023/09/07 05:27:14;;;;;;;;;13.00;13.00;;;;;14.31;83.24;100366.19;6278085;20;2809647;-57
2023/09/07 05:29:42;;;;;;;;;17.00;14.00;;;;;14.43;83.24;100364.50;6275428;20;2487800;-56
2023/09/07 05:32:11;;;;;;;;;14.00;14.00;;;;;14.60;83.51;100366.09;6278767;20;2500370;-54
2023/09/07 05:34:39;;;;;;;;;13.00;13.00;;;;;14.74;82.75;100363.31;6276925;20;3527343;-55
2023/09/07 05:37:08;;;;;;;;;13.33;12.00;;;;;14.84;82.31;100363.56;6307362;20;2814975;-57
2023/09/07 05:39:37;;;;;;;;;13.67;13.67;;;;;15.04;81.82;100373.88;6309418;20;3520110;-55
2023/09/07 05:42:05;;;;;;;;;15.50;13.00;;;;;15.17;81.58;100370.34;6308631;20;2795118;-57
2023/09/07 05:44:33;;;;;;;;;12.00;12.00;;;;;15.31;81.28;100378.34;6286231;20;2792022;-57
2023/09/07 05:47:02;;;;;;;;;19.33;14.00;;;;;15.62;80.58;100376.19;6277937;20;3542952;-57
2023/09/07 05:49:33;;;;;;;;;14.00;14.00;;;;;15.65;80.12;100371.41;6308618;20;2800299;-57
2023/09/07 05:52:03;;;;;;;;;14.67;14.00;;;;;15.99;79.69;100369.84;6276056;20;3535103;-56
2023/09/07 05:54:34;;;;;;;;;16.00;14.67;;;;;16.57;78.11;100363.78;6265415;20;3546189;-57
2023/09/07 05:57:02;;;;;;;;;13.00;13.00;;;;;18.80;72.03;100376.72;6284461;20;2801322;-58
2023/09/07 05:59:30;;;;;;;;;14.00;13.00;;;;;19.46;67.39;100380.09;6278168;20;2483735;-58
2023/09/07 06:01:58;;;;;;;;;12.00;12.00;;;;;19.11;67.73;100380.41;6287342;20;2804567;-57
2023/09/07 06:04:27;;;;;;;;;15.00;13.00;;;;;18.78;69.82;100389.63;6284489;20;2801366;-58
2023/09/07 06:06:56;;;;;;;;;13.00;13.00;;;;;19.85;66.75;100383.03;6310302;20;3538801;-58
2023/09/07 06:09:24;;;;;;;;;13.00;13.00;;;;;19.93;66.46;100385.94;6274644;20;3508711;-58
2023/09/07 06:11:53;;;;;;;;;11.67;11.67;;;;;20.53;64.78;100390.53;6313050;20;3524295;-58
2023/09/07 06:14:22;;;;;;;;;9.20;8.00;;;;;20.99;62.38;100391.75;6339653;20;2762808;-58
2023/09/07 06:16:51;;;;;;;;;13.00;12.00;;;;;22.99;56.18;100406.78;6282448;20;3527396;-58
2023/09/07 06:19:20;;;;;;;;;12.00;11.00;;;;;24.09;53.55;100407.22;6312565;20;3510679;-58
2023/09/07 06:21:49;;;;;;;;;14.67;12.00;;;;;24.31;52.49;100412.13;6319361;20;2798266;-59
2023/09/07 06:24:18;;;;;;;;;15.67;12.67;;;;;26.02;50.18;100421.56;6314056;20;3539992;-58
2023/09/07 06:26:48;;;;;;;;;14.00;11.00;;;;;25.70;51.06;100419.72;6281106;20;3509766;-55
2023/09/07 06:29:16;;;;;;;;;9.67;9.67;;;;;26.52;48.61;100422.25;6281571;20;2762849;-57
2023/09/07 06:31:45;;;;;;;;;10.67;10.67;;;;;25.22;51.10;100412.38;6317072;20;2784746;-57
2023/09/07 06:34:14;;;;;;;;;9.67;9.00;;;;;26.41;48.39;100419.84;6321099;20;2765947;-57
2023/09/07 06:36:42;;;;;;;;;11.67;9.00;;;;;29.12;42.48;100427.19;6313788;20;2769158;-56
2023/09/07 06:39:15;;;;;;;;;9.33;9.33;;;;;26.15;48.97;100420.16;6314326;20;3480621;-54
2023/09/07 06:41:48;;;;;;;;;8.67;8.67;;;;;27.78;45.20;100424.56;6314762;20;3463881;-57
2023/09/07 06:44:16;;;;;;;;;11.00;11.00;;;;;29.62;41.24;100438.28;6313160;20;3518004;-55
2023/09/07 06:46:45;;;;;;;;;9.00;9.00;;;;;28.54;43.20;100429.06;6323119;20;2747163;-56
2023/09/07 06:49:13;;;;;;;;;10.33;10.33;;;;;29.43;41.23;100445.38;6312131;20;2796324;-57
2023/09/07 06:51:42;;;;;;;;;9.00;9.00;;;;;31.36;36.69;100451.97;6310651;20;3471226;-56
2023/09/07 06:54:11;;;;;;;;;9.00;9.00;;;;;29.96;38.51;100449.47;6314824;20;3460840;-56
2023/09/07 06:56:39;;;;;;;;;11.00;9.33;;;;;29.78;39.58;100439.94;6321283;20;2774355;-56
2023/09/07 06:59:08;;;;;;;;;10.33;10.33;;;;;30.94;36.95;100446.56;6314915;20;3515996;-55
2023/09/07 07:01:37;;;;;;;;;11.00;9.67;;;;;30.80;38.15;100451.16;6282508;20;3508770;-55
2023/09/07 07:04:06;;;;;;;;;14.00;9.33;;;;;32.17;35.56;100459.25;6315822;20;3502480;-57
2023/09/07 07:06:35;;;;;;;;;12.00;11.00;;;;;31.17;36.80;100457.28;6314995;20;3513813;-55
2023/09/07 07:09:04;;;;;;;;;10.00;9.00;;;;;30.22;37.39;100456.22;6277575;20;2769194;-55
2023/09/07 07:11:33;;;;;;;;;10.33;10.33;;;;;31.20;36.51;100454.09;6307395;20;3513799;-55
2023/09/07 07:14:02;;;;;;;;;12.00;10.33;;;;;31.27;36.78;100460.50;6314507;20;2479566;-54
2023/09/07 07:16:30;;;;;;;;;9.33;9.33;;;;;32.04;36.60;100455.41;6311747;20;3483614;-56
2023/09/07 07:18:59;;;;;;;;;10.33;10.00;;;;;31.67;35.79;100460.53;6304045;20;3503454;-56
2023/09/07 07:21:27;;;;;;;;;9.67;9.67;;;;;30.35;38.25;100449.91;6279444;20;3489886;-53
2023/09/07 07:23:56;;;;;;;;;11.00;11.00;;;;;27.95;42.65;100440.97;6315019;20;3507645;-56
2023/09/07 07:26:25;;;;;;;;;12.00;12.00;;;;;25.14;49.46;100432.44;6315802;20;3527347;-56
2023/09/07 07:28:53;;;;;;;;;10.00;10.00;;;;;25.10;49.50;100431.91;6281062;20;3507715;-53
2023/09/07 07:31:22;;;;;;;;;11.33;11.33;;;;;25.09;49.71;100441.22;6313902;20;2789851;-54
2023/09/07 07:33:50;;;;;;;;;9.33;9.33;;;;;25.33;49.11;100445.00;6312922;20;3484761;-50
2023/09/07 07:36:20;;;;;;;;;11.67;10.00;;;;;25.33;49.51;100442.25;6311594;20;3510782;-51
2023/09/07 07:38:49;;;;;;;;;11.00;10.33;;;;;25.45;49.25;100445.53;6281211;20;3513940;-53
2023/09/07 07:41:18;;;;;;;;;13.00;10.67;;;;;25.76;48.45;100440.19;6280094;20;3507588;-57
2023/09/07 07:43:47;;;;;;;;;10.00;10.00;;;;;25.42;49.46;100446.75;6311714;20;3377350;-55
2023/09/07 07:46:16;;;;;;;;;12.00;11.00;;;;;25.73;49.93;100446.88;6313783;20;3513971;-53
2023/09/07 07:48:45;;;;;;;;;9.33;9.33;;;;;26.00;49.14;100451.16;6312746;20;2483705;-59
2023/09/07 07:51:14;;;;;;;;;12.67;12.00;;;;;26.45;46.95;100452.38;6316461;20;3525285;-58
2023/09/07 07:53:43;;;;;;;;;13.00;11.00;;;;;26.41;46.88;100450.13;6312990;20;3516989;-58
2023/09/07 07:56:19;;;;;;;;;9.67;9.00;;;;;25.47;48.80;100446.22;6279326;20;3478365;-56
2023/09/07 07:58:48;;;;;;;;;9.67;9.67;;;;;25.48;48.46;100448.78;6311467;20;3493000;-59
2023/09/07 08:01:20;;;;;;;;;11.33;11.33;;;;;26.07;48.92;100462.34;6313080;20;3502350;-60
2023/09/07 08:03:49;;;;;;;;;9.67;9.67;;;;;26.42;47.71;100460.13;6314179;20;2769322;-60
2023/09/07 08:06:18;;;;;;;;;12.33;11.33;;;;;25.82;47.62;100450.47;6321252;20;2778519;-60
2023/09/07 08:08:47;;;;;;;;;10.00;10.00;;;;;25.50;48.75;100448.63;6314996;20;2788884;-60
2023/09/07 08:11:15;;;;;;;;;10.33;10.33;;;;;26.27;47.06;100454.50;6317824;20;2487840;-55
2023/09/07 08:13:46;;;;;;;;;9.00;9.00;;;;;26.26;47.21;100444.53;6318920;20;2758625;-55
2023/09/07 08:16:15;;;;;;;;;9.67;9.00;;;;;26.28;46.62;100447.97;6314407;20;2761746;-55
2023/09/07 08:18:44;;;;;;;;;10.50;10.50;;;;;26.34;46.66;100447.25;6316892;20;2483631;-56
2023/09/07 08:21:15;;;;;;;;;11.33;10.33;;;;;25.58;48.65;100446.72;6309291;20;3512943;-55
2023/09/07 08:23:44;;;;;;;;;8.67;8.67;;;;;26.25;47.78;100448.31;6310556;20;3463818;-56
2023/09/07 08:26:14;;;;;;;;;15.00;11.33;;;;;26.31;47.46;100447.63;6307657;20;3520114;-52
2023/09/07 08:28:46;;;;;;;;;9.67;9.67;;;;;26.86;45.90;100452.19;6311005;20;2770156;-59
2023/09/07 08:31:20;;;;;;;;;11.00;9.33;;;;;26.89;47.32;100446.31;6309244;20;3497086;-60
2023/09/07 08:33:51;;;;;;;;;9.33;9.33;;;;;26.89;46.10;100445.47;6282881;20;3485684;-58
2023/09/07 08:36:22;;;;;;;;;9.33;9.00;;;;;26.78;46.34;100441.22;6306386;20;3478407;-59
2023/09/07 08:38:54;;;;;;;;;13.50;10.50;;;;;27.54;44.75;100455.13;6312119;20;2483711;-60
2023/09/07 08:41:24;;;;;;;;;10.00;10.00;;;;;27.19;45.73;100443.72;6311028;20;3510680;-59
2023/09/07 08:43:55;;;;;;;;;12.00;10.67;;;;;26.82;43.68;100448.06;6313454;20;2781542;-59
2023/09/07 08:46:24;;;;;;;;;12.00;11.00;;;;;26.93;46.16;100436.63;6307784;20;3397246;-59
2023/09/07 08:48:55;;;;;;;;;11.67;10.33;;;;;27.24;44.85;100444.03;6303953;20;3533621;-58
2023/09/07 08:51:27;;;;;;;;;12.00;12.00;;;;;26.84;45.71;100426.72;6309006;20;3518006;-58
2023/09/07 08:53:56;;;;;;;;;12.33;11.33;;;;;27.21;46.62;100433.38;6306654;20;3509644;-57
2023/09/07 08:56:25;;;;;;;;;12.00;11.00;;;;;27.61;45.39;100434.03;6305876;20;3510699;-56
2023/09/07 08:58:54;;;;;;;;;10.00;10.00;;;;;27.73;44.73;100432.56;6276481;20;3506588;-57
2023/09/07 09:01:24;;;;;;;;;10.00;9.33;;;;;27.41;44.00;100442.00;6309949;20;2757593;-58
2023/09/07 09:03:53;;;;;;;;;9.00;9.00;;;;;27.17;45.15;100425.59;6309777;20;3472208;-50
2023/09/07 09:06:22;;;;;;;;;9.67;9.67;;;;;26.91;45.45;100424.09;6316684;20;2768096;-56
2023/09/07 09:08:57;;;;;;;;;9.33;9.33;;;;;27.03;45.64;100430.03;6311627;20;2760709;-55
2023/09/07 09:11:29;;;;;;;;;10.00;10.00;;;;;27.35;45.43;100427.03;6313584;20;2768203;-57
2023/09/07 09:13:58;;;;;;;;;12.33;10.67;;;;;27.52;44.60;100416.72;6314322;20;2789876;-55
2023/09/07 09:16:27;;;;;;;;;10.00;10.00;;;;;27.96;43.01;100421.47;6314408;20;2671159;-57
2023/09/07 09:18:57;;;;;;;;;11.67;9.00;;;;;27.36;43.73;100420.50;6317720;20;2776339;-57
2023/09/07 09:21:27;;;;;;;;;6.00;6.00;;;;;27.53;43.40;100418.44;6308635;20;2740945;-53
2023/09/07 09:23:58;;;;;;;;;12.00;10.67;;;;;28.05;43.14;100419.47;6306870;20;3517973;-54
2023/09/07 09:26:26;;;;;;;;;11.33;9.00;;;;;27.31;41.90;100417.44;6286451;20;2770075;-54
2023/09/07 09:28:59;;;;;;;;;10.00;9.67;;;;;28.20;42.36;100414.81;6311212;20;3509664;-57
2023/09/07 09:31:30;;;;;;;;;12.67;9.00;;;;;28.06;41.23;100414.81;6281891;20;3498184;-59
2023/09/07 09:33:59;;;;;;;;;10.33;10.33;;;;;28.14;41.68;100418.31;6309409;20;3513088;-55
2023/09/07 09:36:35;;;;;;;;;8.33;8.33;;;;;28.03;40.89;100416.03;6310063;20;2741956;-58
2023/09/07 09:39:05;;;;;;;;;8.67;8.67;;;;;27.94;40.81;100419.97;6310742;20;3463801;-57
2023/09/07 09:41:33;;;;;;;;;9.50;9.00;;;;;28.44;39.86;100412.81;6325216;20;2758785;-57
2023/09/07 09:44:06;;;;;;;;;9.00;9.00;;;;;28.08;41.32;100409.97;6309070;20;3484799;-57
2023/09/07 09:46:36;;;;;;;;;10.00;8.67;;;;;28.24;41.84;100412.50;6315442;20;2773398;-58
2023/09/07 09:49:08;;;;;;;;;8.00;7.00;;;;;28.33;41.58;100407.72;6309550;20;2738808;-55
2023/09/07 09:51:37;;;;;;;;;9.33;9.33;;;;;28.61;39.92;100408.75;6314966;20;2764882;-58
2023/09/07 09:54:06;;;;;;;;;9.33;9.33;;;;;28.50;39.92;100412.03;6314775;20;2764869;-57
2023/09/07 09:56:35;;;;;;;;;7.33;7.33;;;;;28.87;39.46;100401.81;6313762;20;2740977;-58
2023/09/07 09:59:04;;;;;;;;;10.33;10.33;;;;;28.43;39.93;100406.41;6318706;20;2792091;-58
2023/09/07 10:01:46;;;;;;;;;9.33;9.33;;;;;27.66;40.95;100397.63;6310491;20;2764949;-59
2023/09/07 10:04:18;;;;;;;;;8.00;8.00;;;;;28.34;39.64;100395.66;6313172;20;2756552;-56
2023/09/07 10:07:01;;;;;;;;;7.33;6.67;;;;;27.91;40.09;100389.94;6324453;20;2744445;-52
2023/09/07 10:09:33;;;;;;;;;7.33;7.33;;;;;28.72;39.94;100396.34;6311122;20;3465929;-57
2023/09/07 10:12:04;;;;;;;;;8.33;8.33;;;;;28.74;38.49;100404.44;6328013;20;2747171;-56
2023/09/07 10:14:45;;;;;;;;;9.67;8.33;;;;;28.62;39.83;100391.16;6320620;20;2767037;-58
2023/09/07 10:17:23;;;;;;;;;12.33;10.67;;;;;28.54;39.90;100394.03;6310474;20;3513907;-56
2023/09/07 10:20:07;;;;;;;;;9.67;9.00;;;;;28.60;38.95;100390.47;6307206;20;2759770;-56
2023/09/07 10:22:35;;;;;;;;;7.00;7.00;;;;;28.66;37.02;100386.91;6324883;20;2744036;-55
2023/09/07 10:25:07;;;;;;;;;6.00;6.00;;;;;28.85;37.89;100381.81;6317891;20;2744241;-56
2023/09/07 10:27:39;;;;;;;;;10.67;8.00;;;;;28.97;36.74;100385.78;6310830;20;3494061;-54
2023/09/07 10:30:23;;;;;;;;;7.00;4.33;;;;;28.66;37.44;100389.69;6316574;20;2754459;-57
2023/09/07 10:32:52;;;;;;;;;8.00;7.67;;;;;28.40;37.85;100381.06;6315488;20;2748360;-56
2023/09/07 10:35:21;;;;;;;;;9.00;8.00;;;;;28.26;38.63;100380.03;6322307;20;2745093;-58
2023/09/07 10:37:50;;;;;;;;;8.67;7.67;;;;;28.08;37.90;100369.38;6308389;20;2746695;-58
2023/09/07 10:40:21;;;;;;;;;8.00;8.00;;;;;28.69;37.95;100371.00;6312276;20;2746213;-58
2023/09/07 10:43:00;;;;;;;;;8.67;8.67;;;;;28.84;36.89;100369.91;6325766;20;2734707;-55
2023/09/07 10:45:29;;;;;;;;;8.00;6.33;;;;;28.15;37.63;100367.59;6324256;20;2745171;-54
2023/09/07 10:47:57;;;;;;;;;8.00;8.00;;;;;29.16;37.15;100372.34;6313884;20;2745052;-57
2023/09/07 10:50:26;;;;;;;;;11.00;9.67;;;;;28.72;37.63;100373.38;6314055;20;3507655;-56
2023/09/07 10:52:55;;;;;;;;;11.00;8.67;;;;;28.98;37.34;100370.88;6312723;20;2769031;-57
2023/09/07 10:55:24;;;;;;;;;8.33;8.33;;;;;29.27;35.81;100369.03;6311878;20;2748274;-54
2023/09/07 10:57:52;;;;;;;;;9.33;8.33;;;;;29.53;36.87;100371.16;6320376;20;2753554;-53
2023/09/07 11:00:21;;;;;;;;;8.33;6.67;;;;;29.32;36.17;100367.38;6324847;20;2748159;-56
2023/09/07 11:02:50;;;;;;;;;10.67;10.67;;;;;29.12;35.65;100371.03;6318932;20;2792954;-56
2023/09/07 11:05:19;;;;;;;;;9.00;8.00;;;;;29.23;35.78;100359.44;6322922;20;2741063;-55
2023/09/07 11:07:47;;;;;;;;;6.33;6.33;;;;;29.53;34.80;100365.63;6318535;20;2741965;-57